createdAt,value
2017-08-20T00:00:50.671Z,1000.09
2017-08-20T00:01:50.700Z,1000.1
2017-08-20T00:02:50.725Z,1000.08
2017-08-20T00:03:50.754Z,1000.09
2017-08-20T00:04:50.783Z,1000.1
2017-08-20T00:05:50.810Z,1000.1
2017-08-20T00:06:50.845Z,1000.09
2017-08-20T00:07:50.865Z,1000.14
2017-08-20T00:08:50.894Z,1000.18
2017-08-20T00:09:50.918Z,1000.13
2017-08-20T00:10:50.947Z,1000.14
2017-08-20T00:11:50.975Z,1000.15
2017-08-20T00:12:51.000Z,1000.12
2017-08-20T00:13:51.028Z,1000.13
2017-08-20T00:14:51.058Z,1000.14
2017-08-20T00:15:51.084Z,1000.15
2017-08-20T00:16:51.112Z,1000.14
2017-08-20T00:17:51.141Z,1000.09
2017-08-20T00:18:51.168Z,1000.12
2017-08-20T00:19:51.193Z,1000.09
2017-08-20T00:20:51.222Z,1000.11
2017-08-20T00:21:51.247Z,1000.12
2017-08-20T00:22:51.276Z,1000.12
2017-08-20T00:23:51.306Z,1000.11
2017-08-20T00:24:51.333Z,1000.11
2017-08-20T00:25:51.362Z,1000.12
2017-08-20T00:26:51.387Z,1000.14
2017-08-20T00:27:51.417Z,1000.14
2017-08-20T00:28:51.443Z,1000.14
2017-08-20T00:29:51.468Z,1000.13
2017-08-20T00:30:51.499Z,1000.15
2017-08-20T00:31:51.526Z,1000.13
2017-08-20T00:32:51.552Z,1000.13
2017-08-20T00:33:51.579Z,1000.17
2017-08-20T00:34:51.610Z,1000.15
2017-08-20T00:35:51.635Z,1000.16
2017-08-20T00:36:51.663Z,1000.15
2017-08-20T00:37:51.692Z,1000.17
2017-08-20T00:38:51.721Z,1000.14
2017-08-20T00:39:51.749Z,1000.15
2017-08-20T00:40:52.030Z,1000.12
2017-08-20T00:41:51.804Z,1000.13
2017-08-20T00:42:51.829Z,1000.1
2017-08-20T00:43:51.857Z,1000.13
2017-08-20T00:44:51.886Z,1000.11
2017-08-20T00:45:52.166Z,1000.09
2017-08-20T00:46:51.942Z,1000.05
2017-08-20T00:47:51.968Z,1000.05
2017-08-20T00:48:51.999Z,1000.06
2017-08-20T00:49:52.026Z,1000.07
2017-08-20T00:50:52.051Z,1000.08
2017-08-20T00:51:52.079Z,1000.1
2017-08-20T00:52:52.107Z,1000.1
2017-08-20T00:53:52.137Z,1000.1
2017-08-20T00:54:52.163Z,1000.12
2017-08-20T00:55:52.190Z,1000.13
2017-08-20T00:56:52.220Z,1000.11
2017-08-20T00:57:52.243Z,1000.11
2017-08-20T00:58:52.273Z,1000.14
2017-08-20T00:59:52.297Z,1000.08
2017-08-20T01:00:52.321Z,1000.05
2017-08-20T01:01:52.355Z,1000.09
2017-08-20T01:02:52.383Z,1000.08
2017-08-20T01:03:52.412Z,1000.09
2017-08-20T01:04:52.437Z,1000.08
2017-08-20T01:05:52.466Z,1000.07
2017-08-20T01:06:52.493Z,1000.09
2017-08-20T01:07:52.519Z,1000.08
2017-08-20T01:08:52.548Z,1000.08
2017-08-20T01:09:52.574Z,1000.08
2017-08-20T01:10:52.597Z,1000.06
2017-08-20T01:11:52.631Z,1000.04
2017-08-20T01:12:52.659Z,1000.07
2017-08-20T01:13:52.686Z,1000.07
2017-08-20T01:14:52.713Z,1000.07
2017-08-20T01:15:52.742Z,1000.07
2017-08-20T01:16:52.771Z,1000.09
2017-08-20T01:17:52.795Z,1000.09
2017-08-20T01:18:52.820Z,1000.09
2017-08-20T01:19:52.853Z,1000.11
2017-08-20T01:20:52.874Z,1000.09
2017-08-20T01:21:52.905Z,1000.09
2017-08-20T01:22:52.936Z,1000.11
2017-08-20T01:23:52.965Z,1000.07
2017-08-20T01:24:52.989Z,1000.07
2017-08-20T01:25:53.014Z,1000.1
2017-08-20T01:26:53.047Z,1000.1
2017-08-20T01:27:53.071Z,1000.09
2017-08-20T01:28:53.101Z,1000.11
2017-08-20T01:29:53.129Z,1000.11
2017-08-20T01:30:53.158Z,1000.1
2017-08-20T01:31:53.183Z,1000.1
2017-08-20T01:32:53.212Z,1000.08
2017-08-20T01:33:53.241Z,1000.07
2017-08-20T01:34:53.269Z,1000.1
2017-08-20T01:35:53.289Z,1000.11
2017-08-20T01:36:53.322Z,1000.1
2017-08-20T01:37:53.348Z,1000.11
2017-08-20T01:38:53.376Z,1000.11
2017-08-20T01:39:53.416Z,1000.13
2017-08-20T01:40:53.434Z,1000.16
2017-08-20T01:41:53.455Z,1000.17
2017-08-20T01:42:53.487Z,1000.16
2017-08-20T01:43:53.513Z,1000.18
2017-08-20T01:44:53.541Z,1000.16
2017-08-20T01:45:53.564Z,1000.23
2017-08-20T01:46:53.598Z,1000.17
2017-08-20T01:47:53.622Z,1000.2
2017-08-20T01:48:53.647Z,1000.26
2017-08-20T01:49:53.680Z,1000.22
2017-08-20T01:50:53.706Z,1000.24
2017-08-20T01:51:53.739Z,1000.23
2017-08-20T01:52:53.764Z,1000.23
2017-08-20T01:53:53.792Z,1000.2
2017-08-20T01:54:53.816Z,1000.19
2017-08-20T01:55:53.841Z,1000.17
2017-08-20T01:56:53.875Z,1000.21
2017-08-20T01:57:53.899Z,1000.22
2017-08-20T01:58:53.928Z,1000.2
2017-08-20T01:59:53.959Z,1000.22
2017-08-20T02:00:53.981Z,1000.19
2017-08-20T02:01:54.010Z,1000.22
2017-08-20T02:02:54.039Z,1000.19
2017-08-20T02:03:54.069Z,1000.19
2017-08-20T02:04:54.092Z,1000.16
2017-08-20T02:05:54.118Z,1000.17
2017-08-20T02:06:54.151Z,1000.16
2017-08-20T02:07:54.176Z,1000.17
2017-08-20T02:08:54.201Z,1000.25
2017-08-20T02:09:54.235Z,1000.19
2017-08-20T02:10:54.259Z,1000.24
2017-08-20T02:11:54.286Z,1000.24
2017-08-20T02:12:54.314Z,1000.27
2017-08-20T02:13:54.340Z,1000.25
2017-08-20T02:14:54.370Z,1000.28
2017-08-20T02:15:54.397Z,1000.3
2017-08-20T02:16:54.423Z,1000.34
2017-08-20T02:17:54.447Z,1000.28
2017-08-20T02:18:54.480Z,1000.29
2017-08-20T02:19:54.497Z,1000.29
2017-08-20T02:20:54.530Z,1000.31
2017-08-20T02:21:54.562Z,1000.31
2017-08-20T02:22:54.586Z,1000.26
2017-08-20T02:23:54.618Z,1000.27
2017-08-20T02:24:54.643Z,1000.29
2017-08-20T02:25:54.673Z,1000.28
2017-08-20T02:26:54.698Z,1000.3
2017-08-20T02:27:54.727Z,1000.29
2017-08-20T02:28:54.753Z,1000.32
2017-08-20T02:29:54.779Z,1000.32
2017-08-20T02:30:54.810Z,1000.32
2017-08-20T02:31:54.838Z,1000.35
2017-08-20T02:32:54.863Z,1000.37
2017-08-20T02:33:54.892Z,1000.32
2017-08-20T02:34:54.919Z,1000.37
2017-08-20T02:35:54.941Z,1000.38
2017-08-20T02:36:54.974Z,1000.37
2017-08-20T02:37:54.999Z,1000.34
2017-08-20T02:38:55.027Z,1000.35
2017-08-20T02:39:55.056Z,1000.38
2017-08-20T02:40:55.081Z,1000.34
2017-08-20T02:41:55.111Z,1000.31
2017-08-20T02:42:55.138Z,1000.32
2017-08-20T02:43:55.168Z,1000.28
2017-08-20T02:44:55.193Z,1000.3
2017-08-20T02:45:55.220Z,1000.26
2017-08-20T02:46:55.250Z,1000.29
2017-08-20T02:47:55.274Z,1000.28
2017-08-20T02:48:55.304Z,1000.25
2017-08-20T02:49:55.327Z,1000.24
2017-08-20T02:50:55.357Z,1000.25
2017-08-20T02:51:55.385Z,1000.28
2017-08-20T02:52:55.412Z,1000.31
2017-08-20T02:53:55.440Z,1000.29
2017-08-20T02:54:55.468Z,1000.28
2017-08-20T02:55:55.494Z,1000.27
2017-08-20T02:56:55.774Z,1000.31
2017-08-20T02:57:55.548Z,1000.31
2017-08-20T02:58:55.580Z,1000.33
2017-08-20T02:59:55.605Z,1000.35
2017-08-20T03:00:55.632Z,1000.35
2017-08-20T03:01:55.953Z,1000.34
2017-08-20T03:02:55.683Z,1000.38
2017-08-20T03:03:55.715Z,1000.35
2017-08-20T03:04:55.740Z,1000.36
2017-08-20T03:05:55.768Z,1000.35
2017-08-20T03:06:56.093Z,1000.38
2017-08-20T03:07:55.820Z,1000.36
2017-08-20T03:08:55.851Z,1000.38
2017-08-20T03:09:55.880Z,1000.37
2017-08-20T03:10:55.905Z,1000.41
2017-08-20T03:11:56.184Z,1000.39
2017-08-20T03:12:55.963Z,1000.42
2017-08-20T03:13:55.987Z,1000.39
2017-08-20T03:14:56.016Z,1000.42
2017-08-20T03:15:56.045Z,1000.42
2017-08-20T03:16:56.074Z,1000.45
2017-08-20T03:17:56.099Z,1000.46
2017-08-20T03:18:56.128Z,1000.5
2017-08-20T03:19:56.152Z,1000.5
2017-08-20T03:20:56.181Z,1000.52
2017-08-20T03:21:56.209Z,1000.51
2017-08-20T03:22:56.234Z,1000.55
2017-08-20T03:23:56.263Z,1000.53
2017-08-20T03:24:56.287Z,1000.54
2017-08-20T03:25:56.316Z,1000.51
2017-08-20T03:26:56.346Z,1000.53
2017-08-20T03:27:56.375Z,1000.52
2017-08-20T03:28:56.399Z,1000.51
2017-08-20T03:29:56.429Z,1000.54
2017-08-20T03:30:56.457Z,1000.52
2017-08-20T03:31:56.477Z,1000.52
2017-08-20T03:32:56.509Z,1000.49
2017-08-20T03:33:56.535Z,1000.53
2017-08-20T03:34:56.565Z,1000.52
2017-08-20T03:35:56.591Z,1000.57
2017-08-20T03:36:56.617Z,1000.56
2017-08-20T03:37:56.647Z,1000.55
2017-08-20T03:38:56.671Z,1000.54
2017-08-20T03:39:56.701Z,1000.52
2017-08-20T03:40:56.730Z,1000.55
2017-08-20T03:41:56.758Z,1000.57
2017-08-20T03:42:56.781Z,1000.62
2017-08-20T03:43:56.809Z,1000.61
2017-08-20T03:44:56.836Z,1000.63
2017-08-20T03:45:56.866Z,1000.6
2017-08-20T03:46:56.894Z,1000.64
2017-08-20T03:47:56.918Z,1000.58
2017-08-20T03:48:56.947Z,1000.6
2017-08-20T03:49:56.976Z,1000.6
2017-08-20T03:50:56.999Z,1000.59
2017-08-20T03:51:57.028Z,1000.6
2017-08-20T03:52:57.058Z,1000.62
2017-08-20T03:53:57.083Z,1000.6
2017-08-20T03:54:57.112Z,1000.64
2017-08-20T03:55:57.139Z,1000.65
2017-08-20T03:56:57.165Z,1000.68
2017-08-20T03:57:57.190Z,1000.66
2017-08-20T03:58:57.219Z,1000.64
2017-08-20T03:59:57.243Z,1000.62
2017-08-20T04:00:57.276Z,1000.66
2017-08-20T04:01:57.301Z,1000.69
2017-08-20T04:02:57.331Z,1000.7
2017-08-20T04:03:57.361Z,1000.67
2017-08-20T04:04:57.383Z,1000.68
2017-08-20T04:05:57.408Z,1000.71
2017-08-20T04:06:57.438Z,1000.73
2017-08-20T04:07:57.467Z,1000.75
2017-08-20T04:08:57.490Z,1000.75
2017-08-20T04:09:57.519Z,1000.75
2017-08-20T04:10:57.548Z,1000.72
2017-08-20T04:11:57.577Z,1000.71
2017-08-20T04:12:57.601Z,1000.72
2017-08-20T04:13:57.630Z,1000.71
2017-08-20T04:14:57.655Z,1000.7
2017-08-20T04:15:57.684Z,1000.71
2017-08-20T04:16:57.712Z,1000.7
2017-08-20T04:17:57.737Z,1000.68
2017-08-20T04:18:57.766Z,1000.71
2017-08-20T04:19:57.791Z,1000.72
2017-08-20T04:20:57.816Z,1000.71
2017-08-20T04:21:57.849Z,1000.72
2017-08-20T04:22:57.870Z,1000.71
2017-08-20T04:23:57.902Z,1000.7
2017-08-20T04:24:57.931Z,1000.76
2017-08-20T04:25:57.956Z,1000.75
2017-08-20T04:26:57.984Z,1000.74
2017-08-20T04:27:58.006Z,1000.78
2017-08-20T04:28:58.038Z,1000.78
2017-08-20T04:29:58.063Z,1000.81
2017-08-20T04:30:58.092Z,1000.8
2017-08-20T04:31:58.121Z,1000.83
2017-08-20T04:32:58.144Z,1000.81
2017-08-20T04:33:58.174Z,1000.82
2017-08-20T04:34:58.203Z,1000.83
2017-08-20T04:35:58.228Z,1000.84
2017-08-20T04:36:58.259Z,1000.86
2017-08-20T04:37:58.280Z,1000.85
2017-08-20T04:38:58.310Z,1000.85
2017-08-20T04:39:58.338Z,1000.88
2017-08-20T04:40:58.367Z,1000.87
2017-08-20T04:41:58.390Z,1000.92
2017-08-20T04:42:58.673Z,1000.89
2017-08-20T04:43:58.446Z,1000.9
2017-08-20T04:44:58.475Z,1000.95
2017-08-20T04:45:58.501Z,1000.94
2017-08-20T04:46:58.529Z,1000.91
2017-08-20T04:47:58.553Z,1000.94
2017-08-20T04:48:58.580Z,1000.93
2017-08-20T04:49:58.611Z,1000.91
2017-08-20T04:50:58.638Z,1000.93
2017-08-20T04:51:58.666Z,1000.89
2017-08-20T04:52:58.691Z,1000.88
2017-08-20T04:53:58.721Z,1000.92
2017-08-20T04:54:58.746Z,1000.94
2017-08-20T04:55:58.775Z,1000.95
2017-08-20T04:56:58.800Z,1000.92
2017-08-20T04:57:58.829Z,1000.97
2017-08-20T04:58:58.856Z,1000.99
2017-08-20T04:59:58.883Z,1000.98
2017-08-20T05:00:58.911Z,1000.97
2017-08-20T05:01:58.938Z,1001.03
2017-08-20T05:02:58.965Z,1001
2017-08-20T05:03:58.994Z,1001
2017-08-20T05:04:59.019Z,1001
2017-08-20T05:05:59.047Z,1001
2017-08-20T05:06:59.073Z,1001.03
2017-08-20T05:07:59.352Z,1001.03
2017-08-20T05:08:59.128Z,1001.09
2017-08-20T05:09:59.157Z,1001.03
2017-08-20T05:10:59.179Z,1001.08
2017-08-20T05:11:59.213Z,1001.05
2017-08-20T05:12:59.235Z,1001.06
2017-08-20T05:13:59.268Z,1001.07
2017-08-20T05:14:59.290Z,1001.08
2017-08-20T05:15:59.319Z,1001.1
2017-08-20T05:16:59.343Z,1001.05
2017-08-20T05:17:59.623Z,1001.09
2017-08-20T05:18:59.401Z,1001.11
2017-08-20T05:19:59.418Z,1001.13
2017-08-20T05:20:59.453Z,1001.13
2017-08-20T05:21:59.482Z,1001.14
2017-08-20T05:22:59.755Z,1001.15
2017-08-20T05:23:59.537Z,1001.14
2017-08-20T05:24:59.565Z,1001.15
2017-08-20T05:25:59.590Z,1001.17
2017-08-20T05:26:59.620Z,1001.15
2017-08-20T05:27:59.895Z,1001.15
2017-08-20T05:28:59.669Z,1001.16
2017-08-20T05:29:59.697Z,1001.17
2017-08-20T05:30:59.726Z,1001.16
2017-08-20T05:31:59.753Z,1001.17
2017-08-20T05:32:59.780Z,1001.18
2017-08-20T05:33:59.804Z,1001.19
2017-08-20T05:34:59.837Z,1001.25
2017-08-20T05:35:59.862Z,1001.25
2017-08-20T05:36:59.891Z,1001.27
2017-08-20T05:38:00.167Z,1001.25
2017-08-20T05:38:59.941Z,1001.32
2017-08-20T05:39:59.970Z,1001.3
2017-08-20T05:40:59.999Z,1001.34
2017-08-20T05:42:00.028Z,1001.3
2017-08-20T05:43:00.052Z,1001.31
2017-08-20T05:44:00.081Z,1001.35
2017-08-20T05:45:00.102Z,1001.35
2017-08-20T05:46:00.134Z,1001.35
2017-08-20T05:47:00.163Z,1001.36
2017-08-20T05:48:00.188Z,1001.37
2017-08-20T05:49:00.217Z,1001.37
2017-08-20T05:50:00.246Z,1001.35
2017-08-20T05:51:00.270Z,1001.39
2017-08-20T05:52:00.295Z,1001.36
2017-08-20T05:53:00.324Z,1001.36
2017-08-20T05:54:00.352Z,1001.37
2017-08-20T05:55:00.374Z,1001.4
2017-08-20T05:56:00.405Z,1001.35
2017-08-20T05:57:00.435Z,1001.38
2017-08-20T05:58:00.459Z,1001.34
2017-08-20T05:59:00.489Z,1001.35
2017-08-20T06:00:00.517Z,1001.39
2017-08-20T06:01:00.542Z,1001.39
2017-08-20T06:02:00.572Z,1001.4
2017-08-20T06:03:00.596Z,1001.42
2017-08-20T06:04:00.625Z,1001.44
2017-08-20T06:05:00.650Z,1001.43
2017-08-20T06:06:00.678Z,1001.44
2017-08-20T06:07:00.705Z,1001.43
2017-08-20T06:08:00.731Z,1001.43
2017-08-20T06:09:00.760Z,1001.46
2017-08-20T06:10:00.803Z,1001.44
2017-08-20T06:11:00.814Z,1001.48
2017-08-20T06:12:00.842Z,1001.44
2017-08-20T06:13:00.868Z,1001.46
2017-08-20T06:14:00.897Z,1001.48
2017-08-20T06:15:00.922Z,1001.45
2017-08-20T06:16:00.950Z,1001.44
2017-08-20T06:17:00.979Z,1001.44
2017-08-20T06:18:01.009Z,1001.48
2017-08-20T06:19:01.033Z,1001.42
2017-08-20T06:20:01.057Z,1001.45
2017-08-20T06:21:01.085Z,1001.47
2017-08-20T06:22:01.114Z,1001.51
2017-08-20T06:23:01.143Z,1001.51
2017-08-20T06:24:01.165Z,1001.49
2017-08-20T06:25:01.196Z,1001.49
2017-08-20T06:26:01.232Z,1001.53
2017-08-20T06:27:01.250Z,1001.53
2017-08-20T06:28:01.280Z,1001.51
2017-08-20T06:29:01.304Z,1001.51
2017-08-20T06:30:01.333Z,1001.56
2017-08-20T06:31:01.358Z,1001.57
2017-08-20T06:32:01.386Z,1001.59
2017-08-20T06:33:01.416Z,1001.58
2017-08-20T06:34:01.441Z,1001.62
2017-08-20T06:35:01.467Z,1001.61
2017-08-20T06:36:01.493Z,1001.62
2017-08-20T06:37:01.521Z,1001.61
2017-08-20T06:38:01.550Z,1001.66
2017-08-20T06:39:01.574Z,1001.66
2017-08-20T06:40:01.604Z,1001.66
2017-08-20T06:41:01.632Z,1001.62
2017-08-20T06:42:01.659Z,1001.65
2017-08-20T06:43:01.686Z,1001.66
2017-08-20T06:44:01.714Z,1001.65
2017-08-20T06:45:01.740Z,1001.67
2017-08-20T06:46:01.760Z,1001.66
2017-08-20T06:47:01.795Z,1001.71
2017-08-20T06:48:01.824Z,1001.68
2017-08-20T06:49:01.846Z,1001.69
2017-08-20T06:50:01.876Z,1001.72
2017-08-20T06:51:01.900Z,1001.71
2017-08-20T06:52:01.931Z,1001.72
2017-08-20T06:53:01.959Z,1001.69
2017-08-20T06:54:01.984Z,1001.71
2017-08-20T06:55:02.013Z,1001.72
2017-08-20T06:56:02.041Z,1001.72
2017-08-20T06:57:02.067Z,1001.77
2017-08-20T06:58:02.095Z,1001.77
2017-08-20T06:59:02.124Z,1001.79
2017-08-20T07:00:02.145Z,1001.77
2017-08-20T07:01:02.174Z,1001.81
2017-08-20T07:02:02.202Z,1001.77
2017-08-20T07:03:02.230Z,1001.83
2017-08-20T07:04:02.256Z,1001.81
2017-08-20T07:05:02.286Z,1001.84
2017-08-20T07:06:02.309Z,1001.82
2017-08-20T07:07:02.344Z,1001.8
2017-08-20T07:08:02.367Z,1001.82
2017-08-20T07:09:02.392Z,1001.82
2017-08-20T07:10:02.415Z,1001.86
2017-08-20T07:11:02.449Z,1001.83
2017-08-20T07:12:02.474Z,1001.87
2017-08-20T07:13:02.503Z,1001.9
2017-08-20T07:14:02.531Z,1001.93
2017-08-20T07:15:02.557Z,1001.93
2017-08-20T07:16:02.585Z,1002
2017-08-20T07:17:02.609Z,1002.01
2017-08-20T07:18:02.638Z,1002.04
2017-08-20T07:19:02.666Z,1002.09
2017-08-20T07:20:02.693Z,1002.07
2017-08-20T07:21:02.723Z,1002.1
2017-08-20T07:22:02.749Z,1002.17
2017-08-20T07:23:02.776Z,1002.15
2017-08-20T07:24:02.803Z,1002.17
2017-08-20T07:25:02.832Z,1002.18
2017-08-20T07:26:02.853Z,1002.16
2017-08-20T07:27:02.886Z,1002.18
2017-08-20T07:28:02.911Z,1002.22
2017-08-20T07:29:02.940Z,1002.2
2017-08-20T07:30:02.964Z,1002.21
2017-08-20T07:31:02.993Z,1002.24
2017-08-20T07:32:03.022Z,1002.23
2017-08-20T07:33:03.046Z,1002.2
2017-08-20T07:34:03.075Z,1002.23
2017-08-20T07:35:03.095Z,1002.22
2017-08-20T07:36:03.129Z,1002.22
2017-08-20T07:37:03.152Z,1002.26
2017-08-20T07:38:03.183Z,1002.31
2017-08-20T07:39:03.212Z,1002.33
2017-08-20T07:40:03.242Z,1002.3
2017-08-20T07:41:03.265Z,1002.33
2017-08-20T07:42:03.288Z,1002.29
2017-08-20T07:43:03.321Z,1002.27
2017-08-20T07:44:03.350Z,1002.26
2017-08-20T07:45:03.376Z,1002.28
2017-08-20T07:46:03.398Z,1002.32
2017-08-20T07:47:03.424Z,1002.28
2017-08-20T07:48:03.458Z,1002.29
2017-08-20T07:49:03.540Z,1002.31
2017-08-20T07:50:03.507Z,1002.3
2017-08-20T07:51:03.539Z,1002.29
2017-08-20T07:52:03.561Z,1002.32
2017-08-20T07:53:03.593Z,1002.31
2017-08-20T07:54:03.621Z,1002.32
2017-08-20T07:55:03.649Z,1002.39
2017-08-20T07:56:03.675Z,1002.36
2017-08-20T07:57:03.702Z,1002.44
2017-08-20T07:58:03.731Z,1002.42
2017-08-20T07:59:03.758Z,1002.43
2017-08-20T08:00:03.783Z,1002.41
2017-08-20T08:01:03.834Z,1002.4
2017-08-20T08:02:03.836Z,1002.44
2017-08-20T08:03:03.867Z,1002.43
2017-08-20T08:04:03.894Z,1002.5
2017-08-20T08:05:03.925Z,1002.46
2017-08-20T08:06:03.948Z,1002.47
2017-08-20T08:07:03.980Z,1002.51
2017-08-20T08:08:04.007Z,1002.49
2017-08-20T08:09:04.029Z,1002.46
2017-08-20T08:10:04.060Z,1002.47
2017-08-20T08:11:04.089Z,1002.47
2017-08-20T08:12:04.115Z,1002.52
2017-08-20T08:13:04.141Z,1002.51
2017-08-20T08:14:04.169Z,1002.55
2017-08-20T08:15:04.196Z,1002.55
2017-08-20T08:16:04.223Z,1002.5
2017-08-20T08:17:04.249Z,1002.53
2017-08-20T08:18:04.278Z,1002.57
2017-08-20T08:19:04.605Z,1002.57
2017-08-20T08:20:04.335Z,1002.57
2017-08-20T08:21:04.359Z,1002.57
2017-08-20T08:22:04.388Z,1002.6
2017-08-20T08:23:04.418Z,1002.6
2017-08-20T08:24:04.442Z,1002.57
2017-08-20T08:25:04.483Z,1002.53
2017-08-20T08:26:04.495Z,1002.55
2017-08-20T08:27:04.524Z,1002.57
2017-08-20T08:28:04.553Z,1002.56
2017-08-20T08:29:04.573Z,1002.56
2017-08-20T08:30:04.607Z,1002.57
2017-08-20T08:31:04.635Z,1002.55
2017-08-20T08:32:04.660Z,1002.5
2017-08-20T08:33:04.688Z,1002.47
2017-08-20T08:34:04.718Z,1002.5
2017-08-20T08:35:04.746Z,1002.49
2017-08-20T08:36:04.770Z,1002.51
2017-08-20T08:37:04.799Z,1002.47
2017-08-20T08:38:04.828Z,1002.53
2017-08-20T08:39:05.153Z,1002.57
2017-08-20T08:40:04.882Z,1002.55
2017-08-20T08:41:04.910Z,1002.57
2017-08-20T08:42:04.948Z,1002.57
2017-08-20T08:43:04.963Z,1002.6
2017-08-20T08:44:04.993Z,1002.57
2017-08-20T08:45:05.024Z,1002.59
2017-08-20T08:46:05.047Z,1002.58
2017-08-20T08:47:05.076Z,1002.62
2017-08-20T08:48:05.098Z,1002.65
2017-08-20T08:49:05.128Z,1002.66
2017-08-20T08:50:05.158Z,1002.69
2017-08-20T08:51:05.187Z,1002.68
2017-08-20T08:52:05.212Z,1002.66
2017-08-20T08:53:05.237Z,1002.63
2017-08-20T08:54:05.269Z,1002.62
2017-08-20T08:55:05.293Z,1002.62
2017-08-20T08:56:05.323Z,1002.62
2017-08-20T08:57:05.352Z,1002.64
2017-08-20T08:58:05.371Z,1002.63
2017-08-20T08:59:05.405Z,1002.61
2017-08-20T09:00:05.432Z,1002.63
2017-08-20T09:01:05.459Z,1002.62
2017-08-20T09:02:05.483Z,1002.63
2017-08-20T09:03:05.512Z,1002.63
2017-08-20T09:04:05.540Z,1002.65
2017-08-20T09:05:05.570Z,1002.66
2017-08-20T09:06:05.596Z,1002.62
2017-08-20T09:07:05.626Z,1002.65
2017-08-20T09:08:05.655Z,1002.62
2017-08-20T09:09:05.681Z,1002.65
2017-08-20T09:10:05.708Z,1002.67
2017-08-20T09:11:05.734Z,1002.64
2017-08-20T09:12:05.763Z,1002.62
2017-08-20T09:13:05.788Z,1002.63
2017-08-20T09:14:05.820Z,1002.62
2017-08-20T09:15:05.850Z,1002.61
2017-08-20T09:16:05.873Z,1002.62
2017-08-20T09:17:05.902Z,1002.66
2017-08-20T09:18:05.923Z,1002.66
2017-08-20T09:19:05.955Z,1002.65
2017-08-20T09:20:05.984Z,1002.64
2017-08-20T09:21:06.013Z,1002.68
2017-08-20T09:22:06.041Z,1002.68
2017-08-20T09:23:06.063Z,1002.66
2017-08-20T09:24:06.096Z,1002.71
2017-08-20T09:25:06.120Z,1002.67
2017-08-20T09:26:06.150Z,1002.68
2017-08-20T09:27:06.179Z,1002.67
2017-08-20T09:28:06.202Z,1002.71
2017-08-20T09:29:06.236Z,1002.66
2017-08-20T09:30:06.261Z,1002.63
2017-08-20T09:31:06.290Z,1002.58
2017-08-20T09:32:06.318Z,1002.64
2017-08-20T09:33:06.348Z,1002.61
2017-08-20T09:34:06.374Z,1002.6
2017-08-20T09:35:06.401Z,1002.6
2017-08-20T09:36:06.430Z,1002.54
2017-08-20T09:37:06.459Z,1002.58
2017-08-20T09:38:06.478Z,1002.54
2017-08-20T09:39:06.514Z,1002.53
2017-08-20T09:40:06.539Z,1002.5
2017-08-20T09:41:06.568Z,1002.51
2017-08-20T09:42:06.593Z,1002.52
2017-08-20T09:43:06.623Z,1002.58
2017-08-20T09:44:06.652Z,1002.52
2017-08-20T09:45:06.676Z,1002.61
2017-08-20T09:46:06.705Z,1002.58
2017-08-20T09:47:06.734Z,1002.58
2017-08-20T09:48:06.763Z,1002.56
2017-08-20T09:49:06.791Z,1002.56
2017-08-20T09:50:06.815Z,1002.57
2017-08-20T09:51:06.845Z,1002.57
2017-08-20T09:52:06.874Z,1002.58
2017-08-20T09:53:06.902Z,1002.6
2017-08-20T09:54:06.927Z,1002.63
2017-08-20T09:55:06.955Z,1002.6
2017-08-20T09:56:06.984Z,1002.57
2017-08-20T09:57:07.013Z,1002.52
2017-08-20T09:58:07.042Z,1002.48
2017-08-20T09:59:07.066Z,1002.54
2017-08-20T10:00:07.095Z,1002.49
2017-08-20T10:01:07.125Z,1002.47
2017-08-20T10:02:07.153Z,1002.57
2017-08-20T10:03:07.177Z,1002.48
2017-08-20T10:04:07.207Z,1002.49
2017-08-20T10:05:07.236Z,1002.49
2017-08-20T10:06:07.263Z,1002.55
2017-08-20T10:07:07.289Z,1002.48
2017-08-20T10:08:07.318Z,1002.5
2017-08-20T10:09:07.347Z,1002.52
2017-08-20T10:10:07.374Z,1002.54
2017-08-20T10:11:07.399Z,1002.49
2017-08-20T10:12:07.428Z,1002.49
2017-08-20T10:13:07.458Z,1002.46
2017-08-20T10:14:07.486Z,1002.48
2017-08-20T10:15:07.511Z,1002.48
2017-08-20T10:16:07.540Z,1002.47
2017-08-20T10:17:07.567Z,1002.49
2017-08-20T10:18:07.597Z,1002.48
2017-08-20T10:19:07.626Z,1002.48
2017-08-20T10:20:07.651Z,1002.5
2017-08-20T10:21:07.680Z,1002.49
2017-08-20T10:22:07.710Z,1002.42
2017-08-20T10:23:07.739Z,1002.46
2017-08-20T10:24:07.763Z,1002.45
2017-08-20T10:25:07.791Z,1002.45
2017-08-20T10:26:07.820Z,1002.44
2017-08-20T10:27:07.849Z,1002.38
2017-08-20T10:28:07.876Z,1002.42
2017-08-20T10:29:07.902Z,1002.37
2017-08-20T10:30:07.932Z,1002.43
2017-08-20T10:31:07.958Z,1002.41
2017-08-20T10:32:07.984Z,1002.44
2017-08-20T10:33:08.013Z,1002.42
2017-08-20T10:34:08.041Z,1002.43
2017-08-20T10:35:08.070Z,1002.42
2017-08-20T10:36:08.105Z,1002.45
2017-08-20T10:37:08.123Z,1002.4
2017-08-20T10:38:08.155Z,1002.38
2017-08-20T10:39:08.183Z,1002.38
2017-08-20T10:40:08.209Z,1002.34
2017-08-20T10:41:08.235Z,1002.3
2017-08-20T10:42:08.263Z,1002.35
2017-08-20T10:43:08.296Z,1002.34
2017-08-20T10:44:08.321Z,1002.31
2017-08-20T10:45:08.349Z,1002.33
2017-08-20T10:46:08.379Z,1002.27
2017-08-20T10:47:08.408Z,1002.33
2017-08-20T10:48:08.432Z,1002.31
2017-08-20T10:49:08.460Z,1002.31
2017-08-20T10:50:08.488Z,1002.34
2017-08-20T10:51:08.517Z,1002.25
2017-08-20T10:52:08.541Z,1002.23
2017-08-20T10:53:08.572Z,1002.24
2017-08-20T10:54:08.601Z,1002.31
2017-08-20T10:55:08.629Z,1002.25
2017-08-20T10:56:08.659Z,1002.25
2017-08-20T10:57:08.689Z,1002.25
2017-08-20T10:58:08.711Z,1002.24
2017-08-20T10:59:08.745Z,1002.32
2017-08-20T11:00:08.775Z,1002.32
2017-08-20T11:01:08.804Z,1002.32
2017-08-20T11:02:08.822Z,1002.34
2017-08-20T11:03:08.857Z,1002.25
2017-08-20T11:04:08.884Z,1002.25
2017-08-20T11:05:08.911Z,1002.25
2017-08-20T11:06:08.939Z,1002.28
2017-08-20T11:07:08.968Z,1002.25
2017-08-20T11:08:08.995Z,1002.25
2017-08-20T11:09:09.034Z,1002.27
2017-08-20T11:10:09.053Z,1002.3
2017-08-20T11:11:09.082Z,1002.28
2017-08-20T11:12:09.110Z,1002.25
2017-08-20T11:13:09.136Z,1002.28
2017-08-20T11:14:09.158Z,1002.24
2017-08-20T11:15:09.192Z,1002.25
2017-08-20T11:16:09.222Z,1002.33
2017-08-20T11:17:09.250Z,1002.33
2017-08-20T11:18:09.276Z,1002.36
2017-08-20T11:19:09.309Z,1002.39
2017-08-20T11:20:09.333Z,1002.32
2017-08-20T11:21:09.362Z,1002.32
2017-08-20T11:22:09.391Z,1002.34
2017-08-20T11:23:09.420Z,1002.38
2017-08-20T11:24:09.450Z,1002.34
2017-08-20T11:25:09.475Z,1002.33
2017-08-20T11:26:09.500Z,1002.34
2017-08-20T11:27:09.529Z,1002.32
2017-08-20T11:28:09.559Z,1002.26
2017-08-20T11:29:09.588Z,1002.25
2017-08-20T11:30:09.618Z,1002.3
2017-08-20T11:31:09.651Z,1002.33
2017-08-20T11:32:09.677Z,1002.33
2017-08-20T11:33:09.705Z,1002.17
2017-08-20T11:34:09.731Z,1002.23
2017-08-20T11:35:09.757Z,1002.15
2017-08-20T11:36:09.782Z,1002.18
2017-08-20T11:37:09.814Z,1002.24
2017-08-20T11:38:09.843Z,1002.42
2017-08-20T11:39:09.872Z,1002.25
2017-08-20T11:40:09.899Z,1002.31
2017-08-20T11:41:09.930Z,1002.35
2017-08-20T11:42:09.958Z,1002.41
2017-08-20T11:43:09.987Z,1002.37
2017-08-20T11:44:10.020Z,1002.33
2017-08-20T11:45:10.046Z,1002.37
2017-08-20T11:46:10.069Z,1002.4
2017-08-20T11:47:10.103Z,1002.35
2017-08-20T11:48:10.131Z,1002.38
2017-08-20T11:49:10.162Z,1002.31
2017-08-20T11:50:10.189Z,1002.36
2017-08-20T11:51:10.218Z,1002.39
2017-08-20T11:52:10.250Z,1002.42
2017-08-20T11:53:10.275Z,1002.49
2017-08-20T11:54:10.308Z,1002.51
2017-08-20T11:55:10.336Z,1002.54
2017-08-20T11:56:10.365Z,1002.49
2017-08-20T11:57:10.397Z,1002.51
2017-08-20T11:58:10.427Z,1002.47
2017-08-20T11:59:10.456Z,1002.4
2017-08-20T12:00:10.485Z,1002.39
2017-08-20T12:01:10.513Z,1002.39
2017-08-20T12:02:10.545Z,1002.45
2017-08-20T12:03:10.578Z,1002.43
2017-08-20T12:04:10.606Z,1002.43
2017-08-20T12:05:10.636Z,1002.41
2017-08-20T12:06:10.669Z,1002.49
2017-08-20T12:07:10.701Z,1002.46
2017-08-20T12:08:10.732Z,1002.45
2017-08-20T12:09:10.764Z,1002.45